New York, NY (10009)

11:38 PM EDT on May 06, 2015 (GMT -0400)
Williamsburg | | Change Station
CLOSE
Current Station
Personal Weather Station
Location: Brooklyn, NY
Elevation: 64 ft
Nearby Weather Stations

Elev 64 ft 40.72 °N, 73.96 °W | Updated 2 minutes ago

Clear
Clear
58.4 °F
Feels Like 58.4 °F
N
1.6
Wind Variable Wind from North
Gusts 3.1 mph

Today
High -- | Low -- °F
--% Chance of Precip.
Yesterday
High -- | Low -- °F
Precip. -- in
5:48 AM 7:57 PM
Waning Gibbous, 91% visible
Pressure 30.24 in
Visibility 10.0 miles
Clouds Clear
Dew Point 37 °F
Humidity 45%
Rainfall 0.00 in
Snow Depth Not available.
UV 0 out of 12
Pollen 3.80 out of 12
Air Quality Not available.
Flu Activity Widespread
METAR KNYC 070251Z AUTO 00000KT 10SM CLR 16/04 A3027 RMK AO2 SLP240 T01610039 50004

More Conditions Fewer Conditions

Pressure 30.24 in
Visibility 10.0 miles
Clouds Clear
Dew Point 37 °F
Humidity 45%
Rainfall 0.00 in
Snow Depth Not available.
UV 0 out of 12
Pollen 3.80 out of 12
Air Quality Not available.
Flu Activity Widespread
METAR KNYC 070251Z AUTO 00000KT 10SM CLR 16/04 A3027 RMK AO2 SLP240 T01610039 50004

More Conditions Fewer Conditions

10-Day Weather Forecast

Almanac

Astronomy

May. 06, 2015 Rise Set
Actual Time
Civil Twilight
Nautical Twilight
Astronomical Twilight
Moon
Length of Visible Light
Length of Day
Tomorrow will be .
, % of the Moon is Illuminated

Today's Extremes

State Highs State Lows

Community

WunderPhotos

Upload Photos

1,819,103 photos uploaded!

WunderBlogs® & News

Nearby

Air Quality

  Air Quality AQ Index Pollutant
Not available.

Snow Depth

Station Depth Elevation

Earthquake Activity

City Distance Mag. Time & Date
Minimum magnitude displayed is 2.5.

Coastal Water Temperatures

Place Temperature

Stations

Nearby Weather Stations

Station Location Temp. Windchill Dew Point Humidity Wind Precip. Elev Updated Type